Wetterdaten: Sonntag, 10.05.2015
Datum Zeit Temp. A. Feuchte A. Luftdruck Regen Wind Richtung Richtung Sonnenschein ET UV Solar Taupunkt Windchill Windben Empfang
10.05.2015 00:00 10,4 C 98 % 1022,1 hPa 0,0 l/m 0,0 km/h (0 Bft) S-SW 198 0 min 0,000 mm 0,0 UV-I 0 W/m 10,1 C 10,4 C 0,0 km/h (0 Bft) 0,00 %
10.05.2015 00:15 10,2 C 98 % 1022,3 hPa 0,0 l/m 0,0 km/h (0 Bft) S 183 0 min 0,000 mm 0,0 UV-I 0 W/m 9,9 C 10,2 C 0,0 km/h (0 Bft) 0,00 %
10.05.2015 00:30 10,2 C 98 % 1022,5 hPa 0,0 l/m 0,4 km/h (0 Bft) N 355 0 min 0,000 mm 0,0 UV-I 0 W/m 9,9 C 10,2 C 4,0 km/h (1 Bft) 0,00 %
10.05.2015 00:45 10,2 C 98 % 1022,7 hPa 0,0 l/m 1,8 km/h (1 Bft) SW 236 0 min 0,000 mm 0,0 UV-I 0 W/m 9,9 C 10,2 C 4,0 km/h (1 Bft) 0,00 %
10.05.2015 01:00 10,2 C 97 % 1022,5 hPa 0,0 l/m 0,0 km/h (0 Bft) S 179 0 min 0,000 mm 0,0 UV-I 0 W/m 9,7 C 10,2 C 0,0 km/h (0 Bft) 0,00 %
10.05.2015 01:15 10,0 C 97 % 1022,6 hPa 0,0 l/m 0,0 km/h (0 Bft) S-SO 168 0 min 0,000 mm 0,0 UV-I 0 W/m 9,5 C 10,0 C 0,0 km/h (0 Bft) 0,00 %
10.05.2015 01:30 9,8 C 97 % 1022,8 hPa 0,0 l/m 0,0 km/h (0 Bft) W-SW 252 0 min 0,000 mm 0,0 UV-I 0 W/m 9,3 C 9,8 C 0,0 km/h (0 Bft) 0,00 %
10.05.2015 01:45 9,8 C 97 % 1023,0 hPa 0,0 l/m 1,4 km/h (1 Bft) W-SW 256 0 min 0,000 mm 0,0 UV-I 0 W/m 9,3 C 9,8 C 4,0 km/h (1 Bft) 0,00 %
10.05.2015 02:00 10,2 C 96 % 1022,9 hPa 0,0 l/m 0,4 km/h (0 Bft) SW 214 0 min 0,000 mm 0,0 UV-I 0 W/m 9,6 C 10,2 C 4,0 km/h (1 Bft) 0,00 %
10.05.2015 02:15 10,2 C 96 % 1023,0 hPa 0,0 l/m 1,4 km/h (1 Bft) SW 233 0 min 0,000 mm 0,0 UV-I 0 W/m 9,6 C 10,2 C 4,0 km/h (1 Bft) 0,00 %
10.05.2015 02:30 10,3 C 95 % 1023,0 hPa 0,0 l/m 0,0 km/h (0 Bft) S-SW 208 0 min 0,000 mm 0,0 UV-I 0 W/m 9,5 C 10,3 C 0,0 km/h (0 Bft) 0,00 %
10.05.2015 02:45 10,2 C 94 % 1023,1 hPa 0,0 l/m 1,8 km/h (1 Bft) W-SW 256 0 min 0,000 mm 0,0 UV-I 0 W/m 9,3 C 10,2 C 4,0 km/h (1 Bft) 0,00 %
10.05.2015 03:00 10,1 C 94 % 1023,4 hPa 0,0 l/m 0,0 km/h (0 Bft) S 173 0 min 0,000 mm 0,0 UV-I 0 W/m 9,2 C 10,1 C 0,0 km/h (0 Bft) 0,00 %
10.05.2015 03:15 9,9 C 94 % 1023,5 hPa 0,0 l/m 0,0 km/h (0 Bft) W-SW 252 0 min 0,000 mm 0,0 UV-I 0 W/m 9,0 C 9,9 C 0,0 km/h (0 Bft) 0,00 %
10.05.2015 03:30 9,9 C 94 % 1023,8 hPa 0,0 l/m 2,9 km/h (1 Bft) SW 216 0 min 0,000 mm 0,0 UV-I 0 W/m 9,0 C 9,9 C 7,9 km/h (2 Bft) 0,00 %
10.05.2015 03:45 10,2 C 94 % 1024,0 hPa 0,0 l/m 0,0 km/h (0 Bft) S 178 0 min 0,000 mm 0,0 UV-I 0 W/m 9,3 C 10,2 C 0,0 km/h (0 Bft) 0,00 %
10.05.2015 04:00 10,6 C 92 % 1024,1 hPa 0,0 l/m 0,0 km/h (0 Bft) SO 139 0 min 0,000 mm 0,0 UV-I 0 W/m 9,4 C 10,6 C 0,0 km/h (0 Bft) 0,00 %
10.05.2015 04:15 10,8 C 91 % 1024,1 hPa 0,0 l/m 1,4 km/h (1 Bft) SW 216 0 min 0,000 mm 0,0 UV-I 0 W/m 9,4 C 10,8 C 4,0 km/h (1 Bft) 0,00 %
10.05.2015 04:30 10,8 C 91 % 1024,0 hPa 0,0 l/m 1,4 km/h (1 Bft) W-SW 255 0 min 0,000 mm 0,0 UV-I 0 W/m 9,4 C 10,8 C 4,0 km/h (1 Bft) 0,00 %
10.05.2015 04:45 10,7 C 90 % 1024,2 hPa 0,0 l/m 0,7 km/h (0 Bft) W-SW 252 0 min 0,000 mm 0,0 UV-I 0 W/m 9,1 C 10,7 C 4,0 km/h (1 Bft) 0,00 %
10.05.2015 05:00 10,6 C 90 % 1024,2 hPa 0,0 l/m 2,9 km/h (1 Bft) W-SW 253 0 min 0,000 mm 0,0 UV-I 0 W/m 9,0 C 10,6 C 4,0 km/h (1 Bft) 0,00 %
10.05.2015 05:15 10,7 C 89 % 1025,0 hPa 0,0 l/m 3,2 km/h (1 Bft) W-SW 252 0 min 0,000 mm 0,0 UV-I 0 W/m 9,0 C 10,7 C 4,0 km/h (1 Bft) 0,00 %
10.05.2015 05:30 10,6 C 89 % 1025,0 hPa 0,0 l/m 0,0 km/h (0 Bft) SW 224 0 min 0,000 mm 0,0 UV-I 0 W/m 8,9 C 10,6 C 0,0 km/h (0 Bft) 0,00 %
10.05.2015 05:45 10,4 C 91 % 1025,2 hPa 0,0 l/m 0,0 km/h (0 Bft) S-SW 199 0 min 0,000 mm 0,0 UV-I 5 W/m 9,0 C 10,4 C 0,0 km/h (0 Bft) 0,00 %
10.05.2015 06:00 10,5 C 90 % 1025,5 hPa 0,0 l/m 0,4 km/h (0 Bft) N 356 0 min 0,000 mm 0,0 UV-I 4 W/m 8,9 C 10,5 C 4,0 km/h (1 Bft) 0,00 %
10.05.2015 06:15 10,8 C 89 % 1025,5 hPa 0,0 l/m 1,8 km/h (1 Bft) S-SW 208 0 min 0,000 mm 0,0 UV-I 18 W/m 9,1 C 10,8 C 4,0 km/h (1 Bft) 0,00 %
10.05.2015 06:30 11,0 C 88 % 1025,6 hPa 0,0 l/m 5,4 km/h (1 Bft) W-SW 251 0 min 0,000 mm 0,0 UV-I 38 W/m 9,1 C 11,0 C 7,9 km/h (2 Bft) 0,00 %
10.05.2015 06:45 11,2 C 88 % 1025,8 hPa 0,0 l/m 2,2 km/h (1 Bft) S-SW 209 0 min 0,000 mm 0,0 UV-I 58 W/m 9,3 C 11,2 C 4,0 km/h (1 Bft) 0,00 %
10.05.2015 07:00 11,4 C 88 % 1025,8 hPa 0,0 l/m 0,4 km/h (0 Bft) SW 214 0 min 0,000 mm 0,0 UV-I 38 W/m 9,5 C 11,4 C 4,0 km/h (1 Bft) 0,00 %
10.05.2015 07:15 11,6 C 87 % 1026,0 hPa 0,0 l/m 0,0 km/h (0 Bft) S-SW 208 15 min 0,000 mm 1,0 UV-I 199 W/m 9,5 C 11,6 C 0,0 km/h (0 Bft) 0,00 %
10.05.2015 07:30 12,5 C 84 % 1025,9 hPa 0,0 l/m 0,7 km/h (0 Bft) W-SW 252 0 min 0,000 mm 1,0 UV-I 96 W/m 9,9 C 12,5 C 4,0 km/h (1 Bft) 0,00 %
10.05.2015 07:45 12,3 C 84 % 1026,2 hPa 0,0 l/m 1,8 km/h (1 Bft) W-SW 253 0 min 0,000 mm 1,0 UV-I 111 W/m 9,7 C 12,3 C 4,0 km/h (1 Bft) 0,00 %
10.05.2015 08:00 12,8 C 83 % 1026,1 hPa 0,0 l/m 1,4 km/h (1 Bft) W-SW 251 15 min 0,000 mm 1,0 UV-I 260 W/m 10,0 C 12,8 C 4,0 km/h (1 Bft) 0,00 %
10.05.2015 08:15 13,4 C 81 % 1025,9 hPa 0,0 l/m 6,5 km/h (2 Bft) SW 221 0 min 0,000 mm 2,0 UV-I 227 W/m 10,2 C 13,4 C 7,9 km/h (2 Bft) 0,00 %
10.05.2015 08:30 14,4 C 77 % 1026,0 hPa 0,0 l/m 6,8 km/h (2 Bft) W-NW 290 15 min 0,000 mm 2,0 UV-I 366 W/m 10,4 C 14,2 C 11,9 km/h (2 Bft) 0,00 %
10.05.2015 08:45 14,9 C 73 % 1025,9 hPa 0,0 l/m 10,4 km/h (2 Bft) W 270 15 min 0,000 mm 2,0 UV-I 356 W/m 10,1 C 12,8 C 11,9 km/h (2 Bft) 0,00 %
10.05.2015 09:00 15,2 C 68 % 1026,0 hPa 0,0 l/m 0,7 km/h (0 Bft) SW 225 15 min 0,000 mm 2,0 UV-I 408 W/m 9,3 C 15,2 C 4,0 km/h (1 Bft) 0,00 %
10.05.2015 09:15 15,8 C 69 % 1025,9 hPa 0,0 l/m 0,7 km/h (0 Bft) W-SW 256 0 min 0,000 mm 2,0 UV-I 240 W/m 10,1 C 15,8 C 4,0 km/h (1 Bft) 0,00 %
10.05.2015 09:30 15,5 C 67 % 1025,7 hPa 0,0 l/m 6,5 km/h (2 Bft) W-SW 256 15 min 0,000 mm 3,0 UV-I 416 W/m 9,4 C 15,5 C 7,9 km/h (2 Bft) 0,00 %
10.05.2015 09:45 15,9 C 67 % 1025,8 hPa 0,0 l/m 0,0 km/h (0 Bft) S-SW 210 0 min 0,000 mm 2,0 UV-I 316 W/m 9,8 C 15,9 C 0,0 km/h (0 Bft) 0,00 %
10.05.2015 10:00 15,7 C 64 % 1025,9 hPa 0,0 l/m 3,2 km/h (1 Bft) SW 223 0 min 0,000 mm 3,0 UV-I 350 W/m 8,9 C 15,7 C 4,0 km/h (1 Bft) 0,00 %
10.05.2015 10:15 16,0 C 62 % 1026,0 hPa 0,0 l/m 7,9 km/h (2 Bft) W-SW 238 0 min 0,000 mm 2,0 UV-I 364 W/m 8,7 C 15,2 C 7,9 km/h (2 Bft) 0,00 %
10.05.2015 10:30 16,3 C 60 % 1025,9 hPa 0,0 l/m 1,4 km/h (1 Bft) S 185 15 min 0,000 mm 3,0 UV-I 422 W/m 8,5 C 16,3 C 4,0 km/h (1 Bft) 0,00 %
10.05.2015 10:45 16,1 C 61 % 1025,6 hPa 0,0 l/m 4,7 km/h (1 Bft) W-NW 286 0 min 0,000 mm 1,0 UV-I 204 W/m 8,6 C 16,1 C 7,9 km/h (2 Bft) 0,00 %
10.05.2015 11:00 15,5 C 62 % 1025,7 hPa 0,0 l/m 2,9 km/h (1 Bft) W 267 0 min 0,000 mm 2,0 UV-I 214 W/m 8,3 C 15,5 C 7,9 km/h (2 Bft) 0,00 %
10.05.2015 11:15 15,6 C 63 % 1025,8 hPa 0,0 l/m 5,4 km/h (1 Bft) W-SW 256 0 min 0,000 mm 1,0 UV-I 206 W/m 8,6 C 15,6 C 7,9 km/h (2 Bft) 0,00 %
10.05.2015 11:30 15,8 C 64 % 1025,4 hPa 0,0 l/m 0,0 km/h (0 Bft) SO 141 0 min 0,000 mm 2,0 UV-I 420 W/m 9,0 C 15,8 C 0,0 km/h (0 Bft) 0,00 %
10.05.2015 11:45 16,3 C 62 % 1025,4 hPa 0,0 l/m 4,0 km/h (1 Bft) W-SW 237 15 min 0,000 mm 3,0 UV-I 487 W/m 9,0 C 16,3 C 7,9 km/h (2 Bft) 0,00 %
10.05.2015 12:00 16,6 C 58 % 1025,2 hPa 0,0 l/m 0,4 km/h (0 Bft) SW 220 0 min 0,000 mm 2,0 UV-I 253 W/m 8,3 C 16,6 C 4,0 km/h (1 Bft) 0,00 %
10.05.2015 12:15 17,0 C 56 % 1025,1 hPa 0,0 l/m 6,5 km/h (2 Bft) S-SO 156 0 min 0,000 mm 1,0 UV-I 193 W/m 8,2 C 17,0 C 15,8 km/h (3 Bft) 0,00 %
10.05.2015 12:30 16,8 C 59 % 1025,4 hPa 0,0 l/m 7,2 km/h (2 Bft) W-SW 249 0 min 0,000 mm 2,0 UV-I 203 W/m 8,7 C 16,4 C 11,9 km/h (2 Bft) 0,00 %
10.05.2015 12:45 16,0 C 63 % 1025,3 hPa 0,0 l/m 1,8 km/h (1 Bft) S-SW 212 15 min 0,000 mm 6,0 UV-I 574 W/m 9,0 C 16,0 C 4,0 km/h (1 Bft) 0,00 %
10.05.2015 13:00 17,7 C 60 % 1025,3 hPa 0,0 l/m 6,8 km/h (2 Bft) W-NW 289 15 min 0,000 mm 6,0 UV-I 792 W/m 9,8 C 17,5 C 11,9 km/h (2 Bft) 0,00 %
10.05.2015 13:15 18,1 C 58 % 1025,1 hPa 0,0 l/m 4,3 km/h (1 Bft) W-NW 295 0 min 0,000 mm 2,0 UV-I 215 W/m 9,7 C 18,1 C 7,9 km/h (2 Bft) 0,00 %
10.05.2015 13:30 17,2 C 54 % 1025,0 hPa 0,0 l/m 11,5 km/h (2 Bft) W-SW 256 0 min 0,000 mm 6,0 UV-I 269 W/m 7,8 C 15,0 C 15,8 km/h (3 Bft) 0,00 %
10.05.2015 13:45 17,8 C 52 % 1024,9 hPa 0,0 l/m 6,8 km/h (2 Bft) W-NW 289 0 min 0,000 mm 1,0 UV-I 187 W/m 7,8 C 17,6 C 11,9 km/h (2 Bft) 0,00 %
10.05.2015 14:00 17,5 C 56 % 1025,0 hPa 0,0 l/m 8,3 km/h (2 Bft) W 281 15 min 0,000 mm 3,0 UV-I 995 W/m 8,6 C 16,6 C 15,8 km/h (3 Bft) 0,00 %
10.05.2015 14:15 18,0 C 55 % 1024,7 hPa 0,0 l/m 0,7 km/h (0 Bft) S-SW 198 15 min 0,000 mm 3,0 UV-I 706 W/m 8,8 C 18,0 C 4,0 km/h (1 Bft) 0,00 %
10.05.2015 14:30 18,7 C 52 % 1024,8 hPa 0,0 l/m 6,5 km/h (2 Bft) W-NW 284 15 min 0,000 mm 5,0 UV-I 923 W/m 8,6 C 18,7 C 11,9 km/h (2 Bft) 0,00 %
10.05.2015 14:45 19,5 C 49 % 1024,5 hPa 0,0 l/m 4,3 km/h (1 Bft) W-SW 255 15 min 0,000 mm 5,0 UV-I 850 W/m 8,5 C 19,5 C 7,9 km/h (2 Bft) 0,00 %
10.05.2015 15:00 19,7 C 51 % 1024,3 hPa 0,0 l/m 7,9 km/h (2 Bft) W-SW 253 0 min 0,000 mm 2,0 UV-I 262 W/m 9,3 C 19,1 C 11,9 km/h (2 Bft) 0,00 %
10.05.2015 15:15 18,5 C 54 % 1024,5 hPa 0,0 l/m 4,0 km/h (1 Bft) W-SW 248 0 min 0,000 mm 2,0 UV-I 267 W/m 9,0 C 18,5 C 7,9 km/h (2 Bft) 0,00 %
10.05.2015 15:30 18,6 C 50 % 1024,1 hPa 0,0 l/m 10,4 km/h (2 Bft) W-NW 294 15 min 0,000 mm 2,0 UV-I 823 W/m 8,0 C 17,0 C 15,8 km/h (3 Bft) 0,00 %
10.05.2015 15:45 19,9 C 47 % 1023,8 hPa 0,0 l/m 4,0 km/h (1 Bft) W-SW 255 15 min 0,000 mm 2,0 UV-I 856 W/m 8,3 C 19,9 C 4,0 km/h (1 Bft) 0,00 %
10.05.2015 16:00 19,9 C 45 % 1023,9 hPa 0,0 l/m 3,2 km/h (1 Bft) S-SW 206 0 min 0,000 mm 2,0 UV-I 236 W/m 7,6 C 19,9 C 7,9 km/h (2 Bft) 0,00 %
10.05.2015 16:15 19,4 C 44 % 1023,9 hPa 0,0 l/m 1,8 km/h (1 Bft) W-SW 255 15 min 0,000 mm 2,0 UV-I 815 W/m 6,8 C 19,4 C 4,0 km/h (1 Bft) 0,00 %
10.05.2015 16:30 20,2 C 44 % 1023,2 hPa 0,0 l/m 4,0 km/h (1 Bft) W-NW 295 15 min 0,000 mm 2,0 UV-I 860 W/m 7,6 C 20,2 C 4,0 km/h (1 Bft) 0,00 %
10.05.2015 16:45 19,7 C 45 % 1023,8 hPa 0,0 l/m 8,3 km/h (2 Bft) W-SW 238 15 min 0,000 mm 1,0 UV-I 825 W/m 7,4 C 18,9 C 11,9 km/h (2 Bft) 0,00 %
10.05.2015 17:00 19,9 C 45 % 1023,7 hPa 0,0 l/m 2,2 km/h (1 Bft) N-NO 19 0 min 0,000 mm 1,0 UV-I 170 W/m 7,6 C 19,9 C 7,9 km/h (2 Bft) 0,00 %
10.05.2015 17:15 19,1 C 44 % 1024,0 hPa 0,0 l/m 9,7 km/h (2 Bft) W-NW 290 0 min 0,000 mm 1,0 UV-I 178 W/m 6,6 C 17,8 C 15,8 km/h (3 Bft) 0,00 %
10.05.2015 17:30 18,5 C 45 % 1024,0 hPa 0,0 l/m 9,4 km/h (2 Bft) W 279 15 min 0,000 mm 1,0 UV-I 679 W/m 6,3 C 17,2 C 11,9 km/h (2 Bft) 0,00 %
10.05.2015 17:45 19,5 C 44 % 1023,9 hPa 0,0 l/m 14,0 km/h (3 Bft) W-SW 256 15 min 0,000 mm 1,0 UV-I 693 W/m 6,9 C 16,9 C 19,8 km/h (3 Bft) 0,00 %
10.05.2015 18:00 19,6 C 45 % 1023,9 hPa 0,0 l/m 7,9 km/h (2 Bft) NW 326 15 min 0,000 mm 1,0 UV-I 654 W/m 7,3 C 19,0 C 15,8 km/h (3 Bft) 0,00 %
10.05.2015 18:15 19,9 C 43 % 1023,8 hPa 0,0 l/m 10,8 km/h (2 Bft) W-SW 255 15 min 0,000 mm 1,0 UV-I 601 W/m 6,9 C 18,3 C 15,8 km/h (3 Bft) 0,00 %
10.05.2015 18:30 19,3 C 47 % 1023,7 hPa 0,0 l/m 0,4 km/h (0 Bft) S 178 15 min 0,000 mm 1,0 UV-I 522 W/m 7,7 C 19,3 C 4,0 km/h (1 Bft) 0,00 %
10.05.2015 18:45 19,1 C 48 % 1024,1 hPa 0,0 l/m 0,0 km/h (0 Bft) S 183 15 min 0,000 mm 1,0 UV-I 403 W/m 7,8 C 19,1 C 0,0 km/h (0 Bft) 0,00 %
10.05.2015 19:00 18,8 C 49 % 1024,0 hPa 0,0 l/m 1,4 km/h (1 Bft) W-NW 299 15 min 0,000 mm 1,0 UV-I 408 W/m 7,9 C 18,8 C 4,0 km/h (1 Bft) 0,00 %
10.05.2015 19:15 18,2 C 50 % 1024,5 hPa 0,0 l/m 0,0 km/h (0 Bft) S 181 15 min 0,000 mm 1,0 UV-I 268 W/m 7,6 C 18,2 C 0,0 km/h (0 Bft) 0,00 %
10.05.2015 19:30 18,2 C 51 % 1024,5 hPa 0,0 l/m 4,3 km/h (1 Bft) SW 234 15 min 0,000 mm 1,0 UV-I 248 W/m 7,9 C 18,2 C 7,9 km/h (2 Bft) 0,00 %
10.05.2015 19:45 17,7 C 51 % 1024,5 hPa 0,0 l/m 0,4 km/h (0 Bft) S 189 15 min 0,000 mm 0,0 UV-I 150 W/m 7,4 C 17,7 C 4,0 km/h (1 Bft) 0,00 %
10.05.2015 20:00 16,7 C 55 % 1024,9 hPa 0,0 l/m 1,4 km/h (1 Bft) SW 222 15 min 0,000 mm 0,0 UV-I 44 W/m 7,6 C 16,7 C 4,0 km/h (1 Bft) 0,00 %
10.05.2015 20:15 16,0 C 57 % 1025,2 hPa 0,0 l/m 0,0 km/h (0 Bft) W-SW 240 15 min 0,000 mm 0,0 UV-I 17 W/m 7,5 C 16,0 C 0,0 km/h (0 Bft) 0,00 %
10.05.2015 20:30 15,5 C 60 % 1025,5 hPa 0,0 l/m 0,0 km/h (0 Bft) S 173 0 min 0,000 mm 0,0 UV-I 2 W/m 7,8 C 15,5 C 0,0 km/h (0 Bft) 0,00 %
10.05.2015 20:45 14,8 C 63 % 1025,8 hPa 0,0 l/m 0,0 km/h (0 Bft) S 182 0 min 0,000 mm 0,0 UV-I 0 W/m 7,8 C 14,8 C 0,0 km/h (0 Bft) 0,00 %
10.05.2015 21:00 14,1 C 66 % 1026,0 hPa 0,0 l/m 0,0 km/h (0 Bft) S-SW 195 0 min 0,000 mm 0,0 UV-I 0 W/m 7,8 C 14,1 C 0,0 km/h (0 Bft) 0,00 %
10.05.2015 21:15 13,6 C 66 % 1026,4 hPa 0,0 l/m 0,0 km/h (0 Bft) S-SO 150 0 min 0,000 mm 0,0 UV-I 0 W/m 7,4 C 13,6 C 0,0 km/h (0 Bft) 0,00 %
10.05.2015 21:30 13,2 C 70 % 1026,6 hPa 0,0 l/m 0,0 km/h (0 Bft) S 189 0 min 0,000 mm 0,0 UV-I 0 W/m 7,9 C 13,2 C 0,0 km/h (0 Bft) 0,00 %
10.05.2015 21:45 13,0 C 70 % 1026,6 hPa 0,0 l/m 0,0 km/h (0 Bft) S 183 0 min 0,000 mm 0,0 UV-I 0 W/m 7,7 C 13,0 C 0,0 km/h (0 Bft) 0,00 %
10.05.2015 22:00 12,8 C 72 % 1026,8 hPa 0,0 l/m 0,4 km/h (0 Bft) S-SW 209 0 min 0,000 mm 0,0 UV-I 0 W/m 7,9 C 12,8 C 4,0 km/h (1 Bft) 0,00 %
10.05.2015 22:15 12,2 C 72 % 1027,1 hPa 0,0 l/m 0,0 km/h (0 Bft) S-SO 167 0 min 0,000 mm 0,0 UV-I 0 W/m 7,3 C 12,2 C 0,0 km/h (0 Bft) 0,00 %
10.05.2015 22:30 12,0 C 71 % 1027,3 hPa 0,0 l/m 0,0 km/h (0 Bft) S 174 0 min 0,000 mm 0,0 UV-I 0 W/m 6,9 C 12,0 C 0,0 km/h (0 Bft) 0,00 %
10.05.2015 22:45 11,9 C 73 % 1027,5 hPa 0,0 l/m 0,0 km/h (0 Bft) S 187 0 min 0,000 mm 0,0 UV-I 0 W/m 7,2 C 11,9 C 0,0 km/h (0 Bft) 0,00 %
10.05.2015 23:00 11,7 C 77 % 1027,8 hPa 0,0 l/m 0,0 km/h (0 Bft) S 189 0 min 0,000 mm 0,0 UV-I 0 W/m 7,8 C 11,7 C 0,0 km/h (0 Bft) 0,00 %
10.05.2015 23:15 11,3 C 79 % 1027,7 hPa 0,0 l/m 0,0 km/h (0 Bft) S 189 0 min 0,000 mm 0,0 UV-I 0 W/m 7,8 C 11,3 C 0,0 km/h (0 Bft) 0,00 %
10.05.2015 23:30 10,9 C 79 % 1027,9 hPa 0,0 l/m 0,0 km/h (0 Bft) S 182 0 min 0,000 mm 0,0 UV-I 0 W/m 7,4 C 10,9 C 0,0 km/h (0 Bft) 0,00 %
10.05.2015 23:45 10,8 C 79 % 1028,0 hPa 0,0 l/m 0,0 km/h (0 Bft) S 182 0 min 0,000 mm 0,0 UV-I 0 W/m 7,3 C 10,8 C 0,0 km/h (0 Bft) 0,00 %
_ Min-Zeit 01:30 18:15 00:00 - 00:00 - - - - - - 17:30 01:30 00:00 00:00
Minimum _ 9,8 C 43 % 1022,1 hPa - 0,0 km/h (0 Bft) - - - - - - 6,3 C 9,8 C 0,0 km/h (0 Bft) 0,00 %
_ Max-Zeit 16:30 00:00 23:45 00:00 17:45 - - 07:15 00:00 12:45 14:00 08:30 16:30 17:45 00:00
Maximum _ 20,2 C 98 % 1028,0 hPa 0,0 l/m 14,0 km/h
W-SW (3 Bft)
- - 15 min 0,000 mm 6,0 UV-I 995 W/m 10,4 C 20,2 C 19,8 km/h
W-SW (3 Bft)
0,00 %
Durchschnitt _ 14,5 C 70 % 1024,9 hPa #0,0 l/m 2,8 km/h (1 Bft) W-SW - #7:45 h #0,000 mm 2,1 UV-I 366 W/m 8,6 C 14,3 C 5,1 km/h (1 Bft) 0,00 %